Time;durP1;ratioP1;P1;durP2;ratioP2;P2;SDS_P1;SDS_P2;PMS_P1;PMS_P2;Temp;Humidity;BMP_temperature;BMP_pressure;BME280_temperature;BME280_humidity;BME280_pressure;Samples;Min_cycle;Max_cycle;Signal;HPM_P1;HPM_P2
2022/08/22 00:02:00;;;;;;;2.63;0.50;;;;;;;16.06;100.00;99761.69;7406484;19;20406;-87
2022/08/22 00:04:55;;;;;;;1.00;0.32;;;;;;;16.06;100.00;99761.69;7409123;19;20077;-87
2022/08/22 00:07:37;;;;;;;0.20;0.10;;;;;;;16.05;100.00;99760.13;7408056;19;20015;-87
2022/08/22 00:10:23;;;;;;;1.55;0.17;;;;;;;16.06;100.00;99758.88;7412782;19;20038;-87
2022/08/22 00:13:18;;;;;;;0.95;0.10;;;;;;;16.09;100.00;99766.25;7405870;19;20010;-88
2022/08/22 00:16:27;;;;;;;1.65;0.52;;;;;;;16.10;100.00;99770.59;7404984;19;20042;-87
2022/08/22 00:19:00;;;;;;;1.23;0.30;;;;;;;16.12;100.00;99770.84;7405056;19;20023;-87
2022/08/22 00:21:43;;;;;;;1.38;0.40;;;;;;;16.08;100.00;99759.13;7406647;19;20022;-87
2022/08/22 00:24:25;;;;;;;1.05;0.43;;;;;;;16.09;100.00;99769.06;7408994;19;20078;-85
2022/08/22 00:27:08;;;;;;;0.35;0.35;;;;;;;16.09;100.00;99771.88;7406797;19;20018;-87
2022/08/22 00:29:50;;;;;;;2.67;0.47;;;;;;;16.07;100.00;99768.06;7411127;19;20006;-87
2022/08/22 00:32:39;;;;;;;0.52;0.20;;;;;;;16.03;100.00;99770.34;7406765;19;20014;-88
2022/08/22 00:35:16;;;;;;;0.88;0.57;;;;;;;16.01;100.00;99776.50;7407165;19;20015;-87
2022/08/22 00:37:51;;;;;;;1.88;0.40;;;;;;;16.01;100.00;99767.31;7407158;19;20021;-87
2022/08/22 00:40:41;;;;;;;3.35;0.60;;;;;;;15.97;100.00;99773.19;7411803;19;20010;-88
2022/08/22 00:43:19;;;;;;;0.45;0.30;;;;;;;15.94;100.00;99760.16;7406946;19;20015;-86
2022/08/22 00:46:17;;;;;;;1.83;0.40;;;;;;;15.92;100.00;99754.31;7406312;19;20014;-86
2022/08/22 00:48:46;;;;;;;2.65;0.22;;;;;;;15.89;100.00;99753.31;7409300;19;20015;-87
2022/08/22 00:51:22;;;;;;;0.85;0.20;;;;;;;15.81;100.00;99745.91;7404765;19;20010;-85
2022/08/22 00:54:18;;;;;;;1.33;0.15;;;;;;;15.81;100.00;99745.91;7397935;19;20074;-85
2022/08/22 00:56:51;;;;;;;0.85;0.40;;;;;;;15.82;100.00;99753.06;7396471;19;20018;-85
2022/08/22 00:59:26;;;;;;;2.50;0.60;;;;;;;15.81;100.00;99746.66;7399693;19;20010;-85
2022/08/22 01:01:52;;;;;;;1.38;0.20;;;;;;;15.79;100.00;99748.47;7397581;19;20018;-85
2022/08/22 01:04:24;;;;;;;0.40;0.40;;;;;;;15.78;100.00;99746.94;7400106;19;20408;-85
2022/08/22 01:07:12;;;;;;;0.47;0.30;;;;;;;15.77;100.00;99748.22;7399445;19;20019;-85
2022/08/22 01:09:50;;;;;;;9.27;0.28;;;;;;;15.78;100.00;99758.94;7400862;19;20120;-85
2022/08/22 01:12:38;;;;;;;1.80;0.65;;;;;;;15.81;100.00;99751.53;7397134;19;20025;-85
2022/08/22 01:15:08;;;;;;;15.57;0.40;;;;;;;15.81;100.00;99746.66;7397122;19;20007;-86
2022/08/22 01:17:34;;;;;;;8.18;0.22;;;;;;;15.79;100.00;99740.03;7398855;19;21265;-85
2022/08/22 01:20:38;;;;;;;0.57;0.40;;;;;;;15.78;100.00;99753.34;7401530;19;20034;-85
2022/08/22 01:23:16;;;;;;;1.05;0.10;;;;;;;15.72;100.00;99743.41;7397751;19;20038;-85
2022/08/22 01:26:01;;;;;;;0.40;0.22;;;;;;;15.67;100.00;99739.31;7397787;19;20021;-85
2022/08/22 01:29:05;;;;;;;1.08;0.43;;;;;;;15.60;100.00;99742.63;7399138;19;20014;-86
2022/08/22 01:31:50;;;;;;;3.95;0.32;;;;;;;15.54;100.00;99741.13;7396389;19;20026;-84
2022/08/22 01:35:01;;;;;;;1.45;0.65;;;;;;;15.48;100.00;99745.97;7396333;19;20030;-85
2022/08/22 01:37:42;;;;;;;0.55;0.25;;;;;;;15.41;100.00;99740.84;7394517;19;20010;-85
2022/08/22 01:40:39;;;;;;;0.30;0.30;;;;;;;15.36;100.00;99738.81;7398312;19;20016;-85
2022/08/22 01:43:35;;;;;;;0.38;0.30;;;;;;;15.31;100.00;99745.19;7394373;19;20018;-84
2022/08/22 01:46:14;;;;;;;0.30;0.30;;;;;;;15.25;100.00;99738.81;7393414;19;20014;-86
2022/08/22 01:48:50;;;;;;;0.77;0.20;;;;;;;15.18;100.00;99738.03;7396084;19;20046;-86
2022/08/22 01:52:00;;;;;;;0.75;0.30;;;;;;;15.17;100.00;99730.91;7394860;19;20363;-86
2022/08/22 01:54:42;;;;;;;1.65;0.43;;;;;;;15.15;100.00;99735.50;7393899;19;20014;-87
2022/08/22 01:57:10;;;;;;;2.67;0.40;;;;;;;15.13;100.00;99738.81;7395106;19;20486;-85
2022/08/22 01:59:40;;;;;;;2.38;0.50;;;;;;;15.13;100.00;99730.41;7397128;19;20088;-85
2022/08/22 02:02:41;;;;;;;0.27;0.23;;;;;;;15.07;100.00;99729.63;7399299;19;20011;-86
2022/08/22 02:05:10;;;;;;;1.85;0.52;;;;;;;15.07;100.00;99732.44;7397299;19;20512;-86
2022/08/22 02:08:01;;;;;;;3.08;0.22;;;;;;;14.99;100.00;99725.03;7397138;19;20368;-86
2022/08/22 02:11:06;;;;;;;1.08;0.50;;;;;;;14.96;100.00;99720.47;7395256;19;20010;-85
2022/08/22 02:13:32;;;;;;;1.23;0.40;;;;;;;14.86;100.00;99717.13;7394070;19;20034;-85
2022/08/22 02:16:15;;;;;;;0.52;0.28;;;;;;;14.79;100.00;99709.19;7393509;19;20015;-85
2022/08/22 02:18:58;;;;;;;1.23;0.40;;;;;;;14.78;100.00;99712.53;7396261;19;20070;-84
2022/08/22 02:21:40;;;;;;;1.27;0.30;;;;;;;14.76;100.00;99703.84;7394478;19;20378;-86
2022/08/22 02:24:32;;;;;;;3.58;0.65;;;;;;;14.74;100.00;99707.19;7400041;19;20021;-85
2022/08/22 02:27:29;;;;;;;0.85;0.40;;;;;;;14.75;100.00;99705.88;7394639;19;20024;-81
2022/08/22 02:30:06;;;;;;;0.52;0.20;;;;;;;14.76;100.00;99704.63;7397976;19;20504;-84
2022/08/22 02:32:44;;;;;;;1.15;0.20;;;;;;;14.77;100.00;99708.94;7396694;19;20039;-84
2022/08/22 02:35:50;;;;;;;0.57;0.43;;;;;;;14.76;100.00;99699.03;7396338;19;20022;-85
2022/08/22 02:38:41;;;;;;;0.90;0.43;;;;;;;14.73;100.00;99699.25;7394349;19;20026;-84
2022/08/22 02:41:31;;;;;;;0.73;0.50;;;;;;;14.71;100.00;99699.00;7393061;19;20400;-84
2022/08/22 02:44:12;;;;;;;1.33;0.20;;;;;;;14.72;100.00;99692.91;7395493;19;20038;-84
2022/08/22 02:46:41;;;;;;;;;;;;;;;14.73;100.00;99700.03;7395797;19;20048;-84
2022/08/22 02:49:32;;;;;;;2.42;0.30;;;;;;;14.74;100.00;99712.00;7396622;19;19922;-85
2022/08/22 02:52:16;;;;;;;1.20;0.50;;;;;;;14.76;100.00;99715.06;7393958;19;20011;-83
2022/08/22 02:54:52;;;;;;;0.38;0.30;;;;;;;14.77;100.00;99725.78;7395842;19;20851;-85
2022/08/22 02:57:27;;;;;;;0.85;0.30;;;;;;;14.79;100.00;99719.66;7393408;19;20488;-87
2022/08/22 03:00:15;;;;;;;2.08;0.77;;;;;;;14.79;100.00;99712.00;7396614;19;20018;-87
2022/08/22 03:02:43;;;;;;;0.52;0.10;;;;;;;14.78;100.00;99707.69;7398084;19;20468;-87
2022/08/22 03:05:26;;;;;;;5.57;0.70;;;;;;;14.80;100.00;99710.75;7393037;19;20014;-92
2022/08/22 03:08:11;;;;;;;0.20;0.15;;;;;;;14.79;100.00;99709.19;7395861;19;20040;-89
2022/08/22 03:10:46;;;;;;;2.13;0.65;;;;;;;14.80;100.00;99715.59;7394954;19;20011;-90
2022/08/22 03:13:23;;;;;;;0.47;0.20;;;;;;;14.77;100.00;99706.16;7393003;19;20015;-87
2022/08/22 03:16:03;;;;;;;1.33;0.55;;;;;;;14.75;100.00;99703.09;7391564;19;20011;-86
2022/08/22 03:18:41;;;;;;;0.30;0.20;;;;;;;14.67;100.00;99707.66;7393214;19;20006;-86
2022/08/22 03:21:23;;;;;;;0.50;0.28;;;;;;;14.69;100.00;99699.50;7392210;19;20010;-87
2022/08/22 03:24:00;;;;;;;2.00;0.25;;;;;;;14.71;100.00;99696.97;7395169;19;20123;-86
2022/08/22 03:26:35;;;;;;;0.38;0.20;;;;;;;14.66;100.00;99692.09;7394745;19;20014;-85
2022/08/22 03:29:07;;;;;;;0.85;0.17;;;;;;;14.65;100.00;99706.63;7395991;19;20101;-86
2022/08/22 03:31:35;;;;;;;2.95;0.45;;;;;;;14.69;100.00;99699.50;7393665;19;20432;-85
2022/08/22 03:34:20;;;;;;;8.27;0.90;;;;;;;14.66;100.00;99703.31;7391269;19;20014;-86
2022/08/22 03:37:03;;;;;;;1.95;0.77;;;;;;;14.70;100.00;99714.31;7394673;19;20074;-86
2022/08/22 03:39:44;;;;;;;4.30;0.45;;;;;;;14.72;100.00;99698.50;7395079;19;20101;-86
2022/08/22 03:42:41;;;;;;;5.15;1.25;;;;;;;14.72;100.00;99697.75;7393107;19;20021;-87
2022/08/22 03:45:14;;;;;;;0.90;0.65;;;;;;;14.70;100.00;99700.28;7394972;19;20479;-87
2022/08/22 03:48:01;;;;;;;0.75;0.35;;;;;;;14.67;100.00;99696.47;7395687;19;20035;-87
2022/08/22 03:50:52;;;;;;;4.32;1.10;;;;;;;14.67;100.00;99695.69;7393728;19;20015;-86
2022/08/22 03:53:44;;;;;;;0.20;0.10;;;;;;;14.63;100.00;99693.13;7393749;19;20026;-86
2022/08/22 03:56:19;;;;;;;0.63;0.38;;;;;;;14.65;100.00;99687.03;7391777;19;20018;-85
2022/08/22 03:59:17;;;;;;;1.25;1.00;;;;;;;14.64;100.00;99677.84;7393501;19;20006;-86
2022/08/22 04:01:46;;;;;;;0.90;0.22;;;;;;;14.63;100.00;99670.72;7392667;19;20038;-86
2022/08/22 04:04:30;;;;;;;0.77;0.30;;;;;;;14.70;100.00;99669.47;7394041;19;20357;-87
2022/08/22 04:06:56;;;;;;;1.35;0.40;;;;;;;14.68;100.00;99672.78;7393686;19;20014;-86
2022/08/22 04:09:50;;;;;;;0.82;0.40;;;;;;;14.69;100.00;99667.91;7397148;19;20010;-87
2022/08/22 04:12:40;;;;;;;2.13;0.50;;;;;;;14.71;100.00;99663.34;7392105;19;20018;-86
2022/08/22 04:15:35;;;;;;;0.30;0.28;;;;;;;14.73;100.00;99665.63;7394544;19;20014;-86
2022/08/22 04:18:29;;;;;;;0.80;0.38;;;;;;;14.71;100.00;99654.91;7392711;19;20575;-86
2022/08/22 04:21:06;;;;;;;0.73;0.30;;;;;;;14.75;100.00;99658.22;7392414;19;20010;-86
2022/08/22 04:23:47;;;;;;;0.70;0.50;;;;;;;14.69;100.00;99657.47;7392988;19;20006;-86
2022/08/22 04:26:14;;;;;;;1.10;0.55;;;;;;;14.66;100.00;99650.06;7392807;19;20017;-86
2022/08/22 04:28:57;;;;;;;0.45;0.15;;;;;;;14.66;100.00;99643.72;7395115;19;20010;-86
2022/08/22 04:31:31;;;;;;;0.40;0.40;;;;;;;14.57;100.00;99638.34;7397649;19;20019;-86
2022/08/22 04:34:14;;;;;;;7.78;0.47;;;;;;;14.54;100.00;99637.31;7398687;19;20014;-86
2022/08/22 04:36:46;;;;;;;1.20;0.63;;;;;;;14.48;100.00;99642.16;7397157;19;20032;-86
2022/08/22 04:39:31;;;;;;;1.73;0.80;;;;;;;14.42;100.00;99644.19;7399107;19;20011;-85
2022/08/22 04:42:31;;;;;;;1.55;0.95;;;;;;;14.41;100.00;99642.66;7397584;19;20017;-86
2022/08/22 04:45:03;;;;;;;4.57;0.63;;;;;;;14.35;100.00;99637.06;7398687;19;20006;-85
2022/08/22 04:47:32;;;;;;;0.60;0.30;;;;;;;14.34;100.00;99634.75;7400995;19;20056;-85
2022/08/22 04:50:35;;;;;;;2.60;0.52;;;;;;;14.32;100.00;99638.06;7404586;19;20015;-85
2022/08/22 04:53:22;;;;;;;0.85;0.73;;;;;;;14.29;100.00;99638.31;7397938;19;20481;-86
2022/08/22 04:55:53;;;;;;;1.42;0.40;;;;;;;14.26;100.00;99650.50;7400555;19;20017;-85
2022/08/22 04:58:30;;;;;;;0.63;0.50;;;;;;;14.27;100.00;99652.03;7400621;19;20010;-85
2022/08/22 05:01:02;;;;;;;2.00;0.50;;;;;;;14.25;100.00;99641.31;7397717;19;20672;-85
2022/08/22 05:03:33;;;;;;;0.63;0.40;;;;;;;14.23;100.00;99645.88;7402930;19;20021;-85
2022/08/22 05:06:01;;;;;;;1.27;0.75;;;;;;;14.23;100.00;99634.69;7400100;19;20070;-86
2022/08/22 05:08:32;;;;;;;0.20;0.10;;;;;;;14.22;100.00;99633.19;7399462;19;20398;-84
2022/08/22 05:11:02;;;;;;;1.42;0.50;;;;;;;14.21;100.00;99631.63;7397342;19;20014;-87
2022/08/22 05:13:35;;;;;;;6.53;1.08;;;;;;;14.21;100.00;99640.03;7398283;19;20339;-87
2022/08/22 05:16:09;;;;;;;2.42;0.60;;;;;;;14.16;100.00;99646.41;7396051;19;20018;-85
2022/08/22 05:18:43;;;;;;;0.30;0.10;;;;;;;14.23;100.00;99645.88;7395255;19;20683;-84
2022/08/22 05:21:12;;;;;;;7.97;0.63;;;;;;;14.23;100.00;99635.47;7397044;19;20018;-84
2022/08/22 05:23:59;;;;;;;1.02;0.45;;;;;;;14.21;100.00;99637.22;7398765;19;20335;-85
2022/08/22 05:26:27;;;;;;;4.43;0.70;;;;;;;14.23;100.00;99635.47;7395681;19;20018;-85
2022/08/22 05:29:01;;;;;;;1.45;0.35;;;;;;;14.29;100.00;99639.06;7397551;19;20377;-85
2022/08/22 05:31:36;;;;;;;0.95;0.43;;;;;;;14.33;100.00;99645.22;7396396;19;20014;-85
2022/08/22 05:34:08;;;;;;;6.28;0.50;;;;;;;14.36;100.00;99643.41;7395630;19;20018;-84
2022/08/22 05:36:39;;;;;;;1.30;1.00;;;;;;;14.40;100.00;99636.28;7396121;19;20010;-84
2022/08/22 05:39:15;;;;;;;0.25;0.22;;;;;;;14.39;100.00;99640.38;7396218;19;20026;-85
2022/08/22 05:41:43;;;;;;;2.95;0.70;;;;;;;14.40;100.00;99633.47;7398645;19;20014;-84
2022/08/22 05:44:23;;;;;;;0.73;0.60;;;;;;;14.43;100.00;99642.91;7398960;19;20084;-84
2022/08/22 05:46:58;;;;;;;1.55;0.68;;;;;;;14.39;100.00;99636.81;7401915;19;20098;-84
2022/08/22 05:49:40;;;;;;;1.40;0.40;;;;;;;14.39;100.00;99650.81;7399427;19;20014;-84
2022/08/22 05:52:06;;;;;;;0.20;0.10;;;;;;;14.40;100.00;99641.16;7396968;19;20654;-84
2022/08/22 05:54:45;;;;;;;0.22;0.20;;;;;;;14.38;100.00;99638.06;7395666;19;20504;-84
2022/08/22 05:57:18;;;;;;;2.42;0.63;;;;;;;14.40;100.00;99643.94;7397090;19;20019;-84
2022/08/22 05:59:48;;;;;;;3.42;0.30;;;;;;;14.41;100.00;99646.22;7397348;19;20118;-84
2022/08/22 06:02:28;;;;;;;8.82;1.20;;;;;;;14.43;100.00;99651.31;7395277;19;20025;-85
2022/08/22 06:05:00;;;;;;;0.55;0.40;;;;;;;14.45;100.00;99648.78;7394997;19;20081;-84
2022/08/22 06:07:40;;;;;;;15.73;1.40;;;;;;;14.52;100.00;99645.47;7395816;19;20508;-84
2022/08/22 06:10:18;;;;;;;0.57;0.20;;;;;;;14.57;100.00;99644.72;7396029;19;20011;-84
2022/08/22 06:13:02;;;;;;;0.40;0.40;;;;;;;14.63;100.00;99655.94;7396477;19;20011;-85
2022/08/22 06:15:32;;;;;;;2.65;0.57;;;;;;;14.69;100.00;99649.06;7398651;19;20050;-84
2022/08/22 06:18:10;;;;;;;0.65;0.30;;;;;;;14.76;100.00;99651.38;7399556;19;20479;-84
2022/08/22 06:20:41;;;;;;;1.23;0.10;;;;;;;14.81;100.00;99649.84;7396245;19;20010;-84
2022/08/22 06:23:07;;;;;;;;;;;;;;;14.85;100.00;99645.50;7397764;19;20014;-84
2022/08/22 06:25:40;;;;;;;0.10;0.10;;;;;;;14.91;100.00;99648.31;7398526;19;19915;-84
2022/08/22 06:28:10;;;;;;;1.50;0.22;;;;;;;15.01;100.00;99653.13;7397736;19;20009;-84
2022/08/22 06:30:38;;;;;;;0.80;0.65;;;;;;;15.08;100.00;99661.03;7398759;19;20018;-84
2022/08/22 06:33:10;;;;;;;1.50;0.63;;;;;;;15.13;100.00;99659.50;7395287;19;20021;-84
2022/08/22 06:38:32;;;;;;;2.65;0.60;;;;;;;15.24;100.00;99641.91;7394156;19;20699;-84
2022/08/22 06:41:05;;;;;;;2.58;1.02;;;;;;;15.28;100.00;99648.00;7392414;19;20022;-85
2022/08/22 06:43:38;;;;;;;0.52;0.43;;;;;;;15.25;100.00;99632.19;7394957;19;20484;-85
2022/08/22 06:46:05;;;;;;;1.35;0.75;;;;;;;15.22;100.00;99627.63;7394507;19;20038;-85
2022/08/22 06:48:34;;;;;;;1.33;0.70;;;;;;;15.18;100.00;99631.44;7396803;19;20094;-84
2022/08/22 06:51:05;;;;;;;2.90;0.45;;;;;;;15.17;100.00;99627.13;7391230;19;20014;-85
2022/08/22 06:53:41;;;;;;;1.00;0.38;;;;;;;15.17;100.00;99632.72;7390548;19;20022;-85
2022/08/22 06:56:08;;;;;;;2.55;0.20;;;;;;;15.25;100.00;99626.56;7391959;19;20006;-84
2022/08/22 06:58:42;;;;;;;0.85;0.45;;;;;;;15.34;100.00;99629.88;7395250;19;20034;-85
2022/08/22 07:01:15;;;;;;;1.95;0.20;;;;;;;15.53;100.00;99624.50;7391888;19;20018;-85
2022/08/22 07:03:54;;;;;;;0.70;0.43;;;;;;;15.65;100.00;99631.63;7394279;19;20018;-86
2022/08/22 07:06:30;;;;;;;4.05;0.68;;;;;;;15.74;100.00;99629.25;7394974;19;20021;-85
2022/08/22 07:08:57;;;;;;;1.30;0.82;;;;;;;15.84;100.00;99624.13;7394718;19;20017;-85
2022/08/22 07:11:28;;;;;;;1.27;0.40;;;;;;;15.94;100.00;99630.97;7391216;19;20094;-85
2022/08/22 07:14:01;;;;;;;3.28;0.35;;;;;;;16.02;100.00;99631.19;7391620;19;20373;-86
2022/08/22 07:16:32;;;;;;;0.93;0.25;;;;;;;16.13;100.00;99623.50;7393729;19;20084;-85
2022/08/22 07:19:00;;;;;;;1.98;0.60;;;;;;;16.30;100.00;99618.53;7395194;19;20027;-85
2022/08/22 07:21:41;;;;;;;1.35;0.28;;;;;;;16.42;100.00;99611.53;7391806;19;20022;-86
2022/08/22 07:24:09;;;;;;;2.10;0.90;;;;;;;16.49;100.00;99630.66;7394501;19;20540;-85
2022/08/22 07:26:48;;;;;;;8.02;0.38;;;;;;;16.51;100.00;99621.72;7393132;19;20180;-85
2022/08/22 07:29:27;;;;;;;0.50;0.32;;;;;;;16.45;100.00;99613.31;7397332;19;20036;-86
2022/08/22 07:32:22;;;;;;;1.90;0.30;;;;;;;16.42;100.00;99608.72;7394708;19;20019;-84
2022/08/22 07:35:03;;;;;;;6.97;0.63;;;;;;;16.34;100.00;99610.56;7396265;19;20017;-86
2022/08/22 07:37:48;;;;;;;;;;;;;;;16.34;100.00;99610.56;7394161;19;20017;-85
2022/08/22 07:40:30;;;;;;;1.05;0.40;;;;;;;16.36;100.00;99613.63;7397592;19;19954;-85
2022/08/22 07:42:59;;;;;;;2.20;0.73;;;;;;;16.38;100.00;99608.25;7393861;19;20010;-85
2022/08/22 07:45:32;;;;;;;0.75;0.45;;;;;;;16.49;100.00;99604.59;7390778;19;20116;-84
2022/08/22 07:48:12;;;;;;;0.63;0.30;;;;;;;16.58;100.00;99610.69;7394825;19;20015;-86
2022/08/22 07:50:54;;;;;;;0.73;0.40;;;;;;;16.69;100.00;99612.66;7393513;19;20015;-85
2022/08/22 07:53:27;;;;;;;6.32;0.63;;;;;;;16.83;100.00;99607.94;7391510;19;20252;-85
2022/08/22 07:55:56;;;;;;;1.83;0.68;;;;;;;16.92;100.00;99607.59;7390521;19;20028;-85
2022/08/22 07:58:25;;;;;;;2.08;0.70;;;;;;;16.96;100.00;99600.38;7392085;19;20018;-85
2022/08/22 08:00:53;;;;;;;4.63;0.50;;;;;;;16.99;100.00;99593.72;7391071;19;20010;-86
2022/08/22 08:03:25;;;;;;;3.20;0.38;;;;;;;16.99;100.00;99595.75;7398287;19;20018;-81
2022/08/22 08:05:53;;;;;;;1.35;0.52;;;;;;;16.92;100.00;99604.78;7393979;19;20062;-82
2022/08/22 08:08:54;;;;;;;1.50;0.45;;;;;;;16.89;100.00;99600.22;7393825;19;20046;-82
2022/08/22 08:11:23;;;;;;;0.30;0.30;;;;;;;16.94;100.00;99602.19;7389009;19;20102;-82
2022/08/22 08:13:56;;;;;;;0.90;0.30;;;;;;;16.98;100.00;99606.25;7391057;19;20026;-81
2022/08/22 08:16:25;;;;;;;2.08;0.52;;;;;;;17.11;100.00;99603.56;7390696;19;20011;-81
2022/08/22 08:18:56;;;;;;;1.85;0.30;;;;;;;17.28;100.00;99609.03;7390703;19;20595;-82
2022/08/22 08:21:30;;;;;;;4.95;0.60;;;;;;;17.47;100.00;99601.41;7391190;19;20109;-82
2022/08/22 08:23:59;;;;;;;5.57;0.57;;;;;;;17.62;100.00;99601.78;7393000;19;20039;-82
2022/08/22 08:26:32;;;;;;;5.55;0.65;;;;;;;17.77;100.00;99604.91;7393842;19;20018;-82
2022/08/22 08:29:01;;;;;;;2.05;0.60;;;;;;;17.86;100.00;99601.72;7396816;19;20010;-86
2022/08/22 08:31:37;;;;;;;1.27;0.20;;;;;;;17.99;100.00;99599.00;7398167;19;20131;-87
2022/08/22 08:34:23;;;;;;;1.13;0.32;;;;;;;17.97;100.00;99600.81;7396767;19;20382;-85
2022/08/22 08:36:58;;;;;;;3.42;0.60;;;;;;;17.91;100.00;99597.31;7394549;19;20473;-83
2022/08/22 08:39:52;;;;;;;4.00;0.85;;;;;;;17.91;100.00;99595.25;7399209;19;20397;-84
2022/08/22 08:46:11;;;;;;;0.85;0.20;;;;;;;18.15;100.00;99591.56;7398539;19;20027;-85
2022/08/22 08:48:43;;;;;;;4.82;0.77;;;;;;;18.24;100.00;99579.91;7397412;19;20011;-86
2022/08/22 08:51:35;;;;;;;1.58;0.40;;;;;;;18.20;100.00;99582.28;7394470;19;20025;-85
2022/08/22 08:54:25;;;;;;;1.13;0.22;;;;;;;18.12;100.00;99570.88;7392297;19;20492;-85
2022/08/22 08:57:06;;;;;;;2.38;1.10;;;;;;;18.11;100.00;99569.34;7394076;19;20019;-85
2022/08/22 08:59:50;;;;;;;9.18;0.85;;;;;;;18.16;100.00;99567.75;7397959;19;20015;-84
2022/08/22 09:02:37;;;;;;;5.72;1.38;;;;;;;18.22;100.00;99567.66;7397518;19;20473;-86
2022/08/22 09:05:21;;;;;;;3.42;0.70;;;;;;;18.36;100.00;99570.00;7395952;19;20025;-86
2022/08/22 09:07:59;;;;;;;4.88;0.88;;;;;;;18.60;100.00;99569.88;7390665;19;20025;-87
2022/08/22 09:10:50;;;;;;;6.25;0.43;;;;;;;18.69;100.00;99565.94;7391046;19;20023;-86
2022/08/22 09:13:54;;;;;;;3.30;0.73;;;;;;;18.68;100.00;99556.69;7387481;19;20101;-84
2022/08/22 09:17:04;;;;;;;1.55;0.77;;;;;;;18.82;100.00;99557.47;7383620;19;20086;-86
2022/08/22 09:19:52;;;;;;;0.80;0.43;;;;;;;19.08;100.00;99548.31;7388185;19;20559;-85
2022/08/22 09:22:37;;;;;;;2.10;0.55;;;;;;;19.36;100.00;99540.81;7388647;19;20019;-85
2022/08/22 09:25:27;;;;;;;4.05;0.60;;;;;;;19.60;100.00;99537.00;7391647;19;20015;-87
2022/08/22 09:28:15;;;;;;;1.25;0.45;;;;;;;19.92;100.00;99534.78;7391467;19;20364;-89
2022/08/22 09:31:04;;;;;;;5.38;0.45;;;;;;;20.13;100.00;99527.09;7390980;19;20019;-89
2022/08/22 09:33:42;;;;;;;1.08;0.38;;;;;;;20.10;100.00;99528.16;7394057;19;20467;-89
2022/08/22 09:36:17;;;;;;;0.65;0.35;;;;;;;20.12;100.00;99521.97;7387497;19;20014;-89
2022/08/22 09:39:12;;;;;;;1.25;0.30;;;;;;;20.22;100.00;99520.22;7390518;19;20021;-89
2022/08/22 09:41:59;;;;;;;2.58;0.38;;;;;;;20.28;100.00;99523.66;7390948;19;20049;-91
2022/08/22 09:44:44;;;;;;;3.42;0.63;;;;;;;20.47;100.00;99514.97;7389351;19;20006;-90
2022/08/22 09:47:30;;;;;;;3.13;0.85;;;;;;;20.56;100.00;99512.44;7388763;19;20015;-90
2022/08/22 09:50:11;;;;;;;6.90;0.68;;;;;;;20.57;100.00;99507.53;7393094;19;20036;-86
2022/08/22 09:52:55;;;;;;;1.55;0.65;;;;;;;20.75;100.00;99506.53;7387348;19;20018;-89
2022/08/22 09:55:40;;;;;;;5.60;0.30;;;;;;;20.80;100.00;99497.91;7390595;19;20030;-90
2022/08/22 09:58:18;;;;;;;3.53;0.28;;;;;;;20.89;100.00;99493.81;7389450;19;20025;-89
2022/08/22 10:00:54;;;;;;;4.80;0.25;;;;;;;21.05;100.00;99495.47;7391243;19;20037;-90
2022/08/22 10:03:44;;;;;;;2.10;0.15;;;;;;;21.18;100.00;99488.94;7393438;19;20082;-90
2022/08/22 10:06:40;;;;;;;4.13;0.32;;;;;;;21.32;100.00;99496.75;7389960;19;20530;-91
2022/08/22 10:09:20;;;;;;;7.40;0.43;;;;;;;21.45;100.00;99487.38;7392279;19;20011;-90
2022/08/22 10:12:10;;;;;;;0.45;0.20;;;;;;;21.53;100.00;99494.56;7388516;19;20022;-89
2022/08/22 10:14:39;;;;;;;2.30;1.25;;;;;;;21.54;100.00;99496.09;7387388;19;20086;-88
2022/08/22 10:17:19;;;;;;;1.35;0.43;;;;;;;21.57;100.00;99489.31;7388607;19;20014;-88
2022/08/22 10:19:46;;;;;;;1.02;0.40;;;;;;;21.67;100.00;99486.72;7389477;19;20029;-89
2022/08/22 10:22:16;;;;;;;2.90;0.65;;;;;;;21.73;100.00;99496.56;7388053;19;20014;-90
2022/08/22 10:25:16;;;;;;;1.95;0.30;;;;;;;21.76;100.00;99489.78;7388009;19;20022;-90
2022/08/22 10:28:02;;;;;;;;;;;;;;;21.73;100.00;99495.78;7388735;19;20127;-89
2022/08/22 10:30:41;;;;;;;4.75;0.68;;;;;;;21.64;100.00;99499.16;7387428;19;19921;-91
2022/08/22 10:33:13;;;;;;;0.17;0.10;;;;;;;21.60;100.00;99493.84;7390937;19;20138;-93
2022/08/22 10:35:49;;;;;;;1.05;0.30;;;;;;;21.61;100.00;99484.03;7390384;19;20022;-86
2022/08/22 10:38:26;;;;;;;3.33;0.63;;;;;;;21.53;100.00;99479.66;7390803;19;20480;-89
2022/08/22 10:41:11;;;;;;;8.18;0.52;;;;;;;21.64;100.00;99487.81;7389194;19;20045;-86
2022/08/22 10:44:03;;;;;;;3.63;0.30;;;;;;;21.75;100.00;99491.09;7392636;19;20042;-89
2022/08/22 10:47:02;;;;;;;0.68;0.30;;;;;;;21.75;100.00;99493.91;7394567;19;20025;-89
2022/08/22 10:49:34;;;;;;;0.40;0.05;;;;;;;21.87;100.00;99492.28;7389954;19;20031;-86
2022/08/22 10:52:18;;;;;;;1.85;1.08;;;;;;;21.90;100.00;99481.88;7386482;19;20035;-91
2022/08/22 10:54:59;;;;;;;1.13;0.45;;;;;;;21.95;100.00;99483.03;7388519;19;20021;-89
2022/08/22 10:57:30;;;;;;;2.83;0.20;;;;;;;21.96;100.00;99485.28;7386462;19;20042;-86
2022/08/22 11:00:29;;;;;;;1.10;0.75;;;;;;;21.93;100.00;99492.13;7388015;19;20018;-86
2022/08/22 11:03:23;;;;;;;8.50;0.35;;;;;;;21.86;100.00;99484.34;7387975;19;20048;-85
2022/08/22 11:05:59;;;;;;;0.47;0.20;;;;;;;21.77;100.00;99484.84;7384678;19;20026;-84
2022/08/22 11:08:47;;;;;;;0.30;0.10;;;;;;;21.70;100.00;99488.44;7385277;19;20517;-87
2022/08/22 11:11:31;;;;;;;0.75;0.17;;;;;;;21.63;100.00;99489.16;7386112;19;20102;-90
2022/08/22 11:14:11;;;;;;;1.27;0.40;;;;;;;21.61;100.00;99491.78;7387746;19;20014;-92
2022/08/22 11:16:50;;;;;;;4.32;0.43;;;;;;;21.61;100.00;99483.28;7386427;19;20030;-92
2022/08/22 11:19:45;;;;;;;1.03;0.23;;;;;;;21.68;100.00;99486.13;7388521;19;20015;-93
2022/08/22 11:22:41;;;;;;;0.30;0.10;;;;;;;21.80;100.00;99487.31;7387053;19;20900;-92
2022/08/22 11:25:26;;;;;;;0.13;0.10;;;;;;;21.97;100.00;99481.16;7388297;19;20014;-90
2022/08/22 11:28:20;;;;;;;1.65;0.10;;;;;;;22.13;100.00;99477.03;7388035;19;20052;-91
2022/08/22 11:31:02;;;;;;;1.60;0.10;;;;;;;22.30;100.00;99467.97;7387695;19;20025;-91
2022/08/22 11:34:03;;;;;;;1.30;0.63;;;;;;;22.38;100.00;99463.81;7388864;19;20026;-88
2022/08/22 11:36:40;;;;;;;4.38;0.60;;;;;;;22.43;100.00;99465.72;7382920;19;20019;-90
2022/08/22 11:39:37;;;;;;;1.50;0.43;;;;;;;22.50;100.00;99462.09;7387837;19;20404;-89
2022/08/22 11:42:07;;;;;;;0.38;0.13;;;;;;;22.56;100.00;99451.34;7385073;19;20292;-90
2022/08/22 11:44:51;;;;;;;2.78;0.10;;;;;;;22.69;100.00;99449.63;7386716;19;20032;-88
2022/08/22 11:47:21;;;;;;;2.67;0.38;;;;;;;22.74;100.00;99455.09;7386171;19;20022;-94
2022/08/22 11:49:51;;;;;;;3.90;0.70;;;;;;;22.79;100.00;99445.66;7390735;19;20018;-90
2022/08/22 11:52:20;;;;;;;;;;;;;;;22.85;100.00;99446.19;7385151;19;20035;-92
2022/08/22 11:55:17;;;;;;;0.80;0.10;;;;;;;22.83;100.00;99440.34;7385097;19;19919;-89
2022/08/22 11:57:48;;;;;;;1.30;0.28;;;;;;;22.86;100.00;99432.75;7387013;19;20018;-89
2022/08/22 12:00:22;;;;;;;0.77;0.10;;;;;;;22.86;100.00;99432.75;7390535;19;20086;-90
2022/08/22 12:03:11;;;;;;;0.32;0.10;;;;;;;22.88;100.00;99430.88;7392794;19;20006;-90
2022/08/22 12:06:02;;;;;;;1.73;0.10;;;;;;;22.91;100.00;99429.75;7394349;19;20055;-92
2022/08/22 12:08:28;;;;;;;;;;;;;;;22.92;100.00;99430.47;7395639;19;20010;-93
2022/08/22 12:11:25;;;;;;;0.30;0.10;;;;;;;22.94;100.00;99424.97;7393500;19;19946;-93
2022/08/22 12:14:03;;;;;;;0.20;0.10;;;;;;;23.02;100.00;99426.47;7391734;19;20018;-94
2022/08/22 12:17:08;;;;;;;0.40;0.20;;;;;;;23.08;100.00;99420.59;7390854;19;20094;-94
2022/08/22 12:20:16;;;;;;;11.20;0.50;;;;;;;23.19;100.00;99425.88;7393970;19;20014;-93
2022/08/22 12:23:25;;;;;;;0.28;0.10;;;;;;;23.29;100.00;99418.25;7391612;19;20456;-93
2022/08/22 12:26:02;;;;;;;0.50;0.10;;;;;;;23.37;100.00;99418.97;7395262;19;20086;-91
2022/08/22 12:28:34;;;;;;;2.28;0.20;;;;;;;23.45;100.00;99414.03;7394824;19;20015;-88
2022/08/22 12:31:14;;;;;;;4.32;0.10;;;;;;;23.64;100.00;99408.63;7390659;19;20015;-90
2022/08/22 12:33:52;;;;;;;0.38;0.10;;;;;;;23.82;100.00;99401.69;7395517;19;20078;-90
2022/08/22 12:37:17;;;;;;;1.02;0.10;;;;;;;23.97;100.00;99407.25;7392949;19;20006;-92